sensor_id;sensor_type;location;lat;lon;timestamp;temperature;humidity
1411;DHT22;700;51.906;8.404;2024-03-08T00:03:05;5.10;99.90
1411;DHT22;700;51.906;8.404;2024-03-08T00:08:08;5.00;99.90
1411;DHT22;700;51.906;8.404;2024-03-08T00:13:10;5.10;99.90
1411;DHT22;700;51.906;8.404;2024-03-08T00:18:13;5.20;99.90
1411;DHT22;700;51.906;8.404;2024-03-08T00:23:14;5.00;99.90
1411;DHT22;700;51.906;8.404;2024-03-08T00:28:16;5.00;99.90
1411;DHT22;700;51.906;8.404;2024-03-08T00:33:17;4.80;99.90
1411;DHT22;700;51.906;8.404;2024-03-08T00:38:18;4.90;99.90
1411;DHT22;700;51.906;8.404;2024-03-08T00:43:19;5.10;99.90
1411;DHT22;700;51.906;8.404;2024-03-08T00:48:22;5.10;99.90
1411;DHT22;700;51.906;8.404;2024-03-08T00:53:23;5.10;99.90
1411;DHT22;700;51.906;8.404;2024-03-08T00:58:24;5.00;99.90
1411;DHT22;700;51.906;8.404;2024-03-08T01:03:26;4.90;99.90
1411;DHT22;700;51.906;8.404;2024-03-08T01:08:27;5.00;99.90
1411;DHT22;700;51.906;8.404;2024-03-08T01:13:28;5.00;99.90
1411;DHT22;700;51.906;8.404;2024-03-08T01:18:29;4.80;99.90
1411;DHT22;700;51.906;8.404;2024-03-08T01:23:30;4.90;99.90
1411;DHT22;700;51.906;8.404;2024-03-08T01:28:30;5.00;99.90
1411;DHT22;700;51.906;8.404;2024-03-08T01:33:32;5.00;99.90
1411;DHT22;700;51.906;8.404;2024-03-08T01:38:32;5.10;99.90
1411;DHT22;700;51.906;8.404;2024-03-08T01:43:34;5.10;99.90
1411;DHT22;700;51.906;8.404;2024-03-08T01:48:34;5.10;99.90
1411;DHT22;700;51.906;8.404;2024-03-08T01:53:38;5.20;99.90
1411;DHT22;700;51.906;8.404;2024-03-08T01:58:42;5.10;99.90
1411;DHT22;700;51.906;8.404;2024-03-08T02:03:47;5.00;99.90
1411;DHT22;700;51.906;8.404;2024-03-08T02:08:48;4.90;99.90
1411;DHT22;700;51.906;8.404;2024-03-08T02:13:49;4.70;99.90
1411;DHT22;700;51.906;8.404;2024-03-08T02:18:49;4.70;99.90
1411;DHT22;700;51.906;8.404;2024-03-08T02:23:50;4.50;99.90
1411;DHT22;700;51.906;8.404;2024-03-08T02:28:55;4.10;99.90
1411;DHT22;700;51.906;8.404;2024-03-08T02:33:56;4.10;99.90
1411;DHT22;700;51.906;8.404;2024-03-08T02:38:58;4.20;99.90
1411;DHT22;700;51.906;8.404;2024-03-08T02:44:01;4.10;99.90
1411;DHT22;700;51.906;8.404;2024-03-08T02:49:02;4.20;99.90
1411;DHT22;700;51.906;8.404;2024-03-08T02:54:04;4.30;99.90
1411;DHT22;700;51.906;8.404;2024-03-08T02:59:05;3.90;99.90
1411;DHT22;700;51.906;8.404;2024-03-08T03:04:06;4.30;99.90
1411;DHT22;700;51.906;8.404;2024-03-08T03:09:09;4.50;99.90
1411;DHT22;700;51.906;8.404;2024-03-08T03:14:13;4.50;99.90
1411;DHT22;700;51.906;8.404;2024-03-08T03:19:16;4.40;99.90
1411;DHT22;700;51.906;8.404;2024-03-08T03:24:16;4.50;99.90
1411;DHT22;700;51.906;8.404;2024-03-08T03:29:21;4.40;99.90
1411;DHT22;700;51.906;8.404;2024-03-08T03:34:21;4.50;99.90
1411;DHT22;700;51.906;8.404;2024-03-08T03:39:23;4.30;99.90
1411;DHT22;700;51.906;8.404;2024-03-08T03:44:24;4.30;99.90
1411;DHT22;700;51.906;8.404;2024-03-08T03:49:25;4.10;99.90
1411;DHT22;700;51.906;8.404;2024-03-08T03:54:25;4.20;99.90
1411;DHT22;700;51.906;8.404;2024-03-08T03:59:26;4.30;99.90
1411;DHT22;700;51.906;8.404;2024-03-08T04:04:27;4.30;99.90
1411;DHT22;700;51.906;8.404;2024-03-08T04:09:28;4.00;99.90
1411;DHT22;700;51.906;8.404;2024-03-08T04:14:29;4.00;99.90
1411;DHT22;700;51.906;8.404;2024-03-08T04:19:29;4.10;99.90
1411;DHT22;700;51.906;8.404;2024-03-08T04:24:30;3.90;99.90
1411;DHT22;700;51.906;8.404;2024-03-08T04:29:33;4.00;99.90
1411;DHT22;700;51.906;8.404;2024-03-08T04:34:35;4.00;99.90
1411;DHT22;700;51.906;8.404;2024-03-08T04:39:38;4.20;99.90
1411;DHT22;700;51.906;8.404;2024-03-08T04:44:40;3.90;99.90
1411;DHT22;700;51.906;8.404;2024-03-08T04:49:44;3.70;99.90
1411;DHT22;700;51.906;8.404;2024-03-08T04:54:49;3.50;99.90
1411;DHT22;700;51.906;8.404;2024-03-08T04:59:52;3.50;99.90
1411;DHT22;700;51.906;8.404;2024-03-08T05:04:55;3.60;99.90
1411;DHT22;700;51.906;8.404;2024-03-08T05:09:58;3.70;99.90
1411;DHT22;700;51.906;8.404;2024-03-08T05:14:58;3.90;99.90
1411;DHT22;700;51.906;8.404;2024-03-08T05:20:02;3.70;99.90
1411;DHT22;700;51.906;8.404;2024-03-08T05:25:04;3.90;99.90
1411;DHT22;700;51.906;8.404;2024-03-08T05:30:08;3.80;99.90
1411;DHT22;700;51.906;8.404;2024-03-08T05:35:15;3.70;99.90
1411;DHT22;700;51.906;8.404;2024-03-08T05:40:16;3.80;99.90
1411;DHT22;700;51.906;8.404;2024-03-08T05:45:17;4.00;99.90
1411;DHT22;700;51.906;8.404;2024-03-08T05:50:22;3.30;99.90
1411;DHT22;700;51.906;8.404;2024-03-08T05:55:24;3.40;99.90
1411;DHT22;700;51.906;8.404;2024-03-08T06:00:28;3.40;99.90
1411;DHT22;700;51.906;8.404;2024-03-08T06:05:28;3.60;99.90
1411;DHT22;700;51.906;8.404;2024-03-08T06:10:29;3.70;99.90
1411;DHT22;700;51.906;8.404;2024-03-08T06:15:29;3.60;99.90
1411;DHT22;700;51.906;8.404;2024-03-08T06:20:31;3.60;99.90
1411;DHT22;700;51.906;8.404;2024-03-08T06:25:34;3.90;99.90
1411;DHT22;700;51.906;8.404;2024-03-08T06:30:35;3.80;99.90
1411;DHT22;700;51.906;8.404;2024-03-08T06:35:36;4.00;99.90
1411;DHT22;700;51.906;8.404;2024-03-08T06:40:39;4.10;99.90
1411;DHT22;700;51.906;8.404;2024-03-08T06:45:40;4.70;99.90
1411;DHT22;700;51.906;8.404;2024-03-08T06:50:41;5.10;99.90
1411;DHT22;700;51.906;8.404;2024-03-08T06:55:41;5.50;99.90
1411;DHT22;700;51.906;8.404;2024-03-08T07:00:44;5.90;99.90
1411;DHT22;700;51.906;8.404;2024-03-08T07:05:45;6.10;99.90
1411;DHT22;700;51.906;8.404;2024-03-08T07:10:46;6.00;99.90
1411;DHT22;700;51.906;8.404;2024-03-08T07:15:47;5.90;99.90
1411;DHT22;700;51.906;8.404;2024-03-08T07:20:50;6.20;99.90
1411;DHT22;700;51.906;8.404;2024-03-08T07:25:50;6.20;99.90
1411;DHT22;700;51.906;8.404;2024-03-08T07:30:51;6.60;99.90
1411;DHT22;700;51.906;8.404;2024-03-08T07:35:52;6.10;99.90
1411;DHT22;700;51.906;8.404;2024-03-08T07:40:52;6.80;99.90
1411;DHT22;700;51.906;8.404;2024-03-08T07:45:55;6.80;99.90
1411;DHT22;700;51.906;8.404;2024-03-08T07:50:59;7.50;99.90
1411;DHT22;700;51.906;8.404;2024-03-08T07:55:59;8.00;99.90
1411;DHT22;700;51.906;8.404;2024-03-08T08:01:02;8.60;99.90
1411;DHT22;700;51.906;8.404;2024-03-08T08:06:03;8.50;99.90
1411;DHT22;700;51.906;8.404;2024-03-08T08:11:06;9.30;99.90
1411;DHT22;700;51.906;8.404;2024-03-08T08:16:09;9.40;99.90
1411;DHT22;700;51.906;8.404;2024-03-08T08:21:10;9.70;99.90
1411;DHT22;700;51.906;8.404;2024-03-08T08:26:11;11.50;99.90
1411;DHT22;700;51.906;8.404;2024-03-08T08:31:14;14.20;96.50
1411;DHT22;700;51.906;8.404;2024-03-08T08:36:15;16.60;87.40
1411;DHT22;700;51.906;8.404;2024-03-08T08:41:16;18.50;77.80
1411;DHT22;700;51.906;8.404;2024-03-08T08:46:18;18.10;67.40
1411;DHT22;700;51.906;8.404;2024-03-08T08:51:21;18.40;64.00
1411;DHT22;700;51.906;8.404;2024-03-08T08:56:30;17.60;62.40
1411;DHT22;700;51.906;8.404;2024-03-08T09:01:30;19.80;61.30
1411;DHT22;700;51.906;8.404;2024-03-08T09:06:34;19.30;58.00
1411;DHT22;700;51.906;8.404;2024-03-08T09:11:35;22.90;54.90
1411;DHT22;700;51.906;8.404;2024-03-08T09:16:35;23.30;47.00
1411;DHT22;700;51.906;8.404;2024-03-08T09:21:37;23.30;45.40
1411;DHT22;700;51.906;8.404;2024-03-08T09:26:38;22.60;47.50
1411;DHT22;700;51.906;8.404;2024-03-08T09:31:41;23.50;44.00
1411;DHT22;700;51.906;8.404;2024-03-08T09:36:41;24.10;42.10
1411;DHT22;700;51.906;8.404;2024-03-08T09:41:45;24.60;40.00
1411;DHT22;700;51.906;8.404;2024-03-08T09:46:48;23.30;40.10
1411;DHT22;700;51.906;8.404;2024-03-08T09:51:51;23.00;41.50
1411;DHT22;700;51.906;8.404;2024-03-08T09:56:52;26.40;39.80
1411;DHT22;700;51.906;8.404;2024-03-08T10:01:53;25.80;37.20
1411;DHT22;700;51.906;8.404;2024-03-08T10:07:01;25.90;38.20
1411;DHT22;700;51.906;8.404;2024-03-08T10:12:01;25.70;38.40
1411;DHT22;700;51.906;8.404;2024-03-08T10:17:05;27.60;36.20
1411;DHT22;700;51.906;8.404;2024-03-08T10:22:15;26.10;35.90
1411;DHT22;700;51.906;8.404;2024-03-08T10:27:19;23.20;38.80
1411;DHT22;700;51.906;8.404;2024-03-08T10:32:19;21.60;40.50
1411;DHT22;700;51.906;8.404;2024-03-08T10:37:21;22.00;41.00
1411;DHT22;700;51.906;8.404;2024-03-08T10:42:28;23.70;38.60
1411;DHT22;700;51.906;8.404;2024-03-08T10:47:30;25.30;38.90
1411;DHT22;700;51.906;8.404;2024-03-08T10:52:33;27.10;36.00
1411;DHT22;700;51.906;8.404;2024-03-08T10:57:35;27.90;34.80
1411;DHT22;700;51.906;8.404;2024-03-08T11:02:40;24.50;35.90
1411;DHT22;700;51.906;8.404;2024-03-08T11:07:43;21.10;38.20
1411;DHT22;700;51.906;8.404;2024-03-08T11:12:44;19.40;42.80
1411;DHT22;700;51.906;8.404;2024-03-08T11:17:49;19.60;44.00
1411;DHT22;700;51.906;8.404;2024-03-08T11:22:55;22.30;41.80
1411;DHT22;700;51.906;8.404;2024-03-08T11:28:23;21.30;37.70
1411;DHT22;700;51.906;8.404;2024-03-08T11:33:26;21.00;40.00
1411;DHT22;700;51.906;8.404;2024-03-08T11:38:32;18.40;41.30
1411;DHT22;700;51.906;8.404;2024-03-08T11:43:33;18.00;44.00
1411;DHT22;700;51.906;8.404;2024-03-08T11:48:39;17.60;45.30
1411;DHT22;700;51.906;8.404;2024-03-08T11:53:42;17.30;44.80
1411;DHT22;700;51.906;8.404;2024-03-08T11:58:55;18.70;43.60
1411;DHT22;700;51.906;8.404;2024-03-08T12:03:57;20.70;42.90
1411;DHT22;700;51.906;8.404;2024-03-08T12:09:01;22.20;39.30
1411;DHT22;700;51.906;8.404;2024-03-08T12:14:03;20.00;41.40
1411;DHT22;700;51.906;8.404;2024-03-08T12:19:07;19.30;43.10
1411;DHT22;700;51.906;8.404;2024-03-08T12:24:11;18.80;44.00
1411;DHT22;700;51.906;8.404;2024-03-08T12:29:18;19.60;43.50
1411;DHT22;700;51.906;8.404;2024-03-08T12:34:20;19.50;43.20
1411;DHT22;700;51.906;8.404;2024-03-08T12:39:22;22.20;41.10
1411;DHT22;700;51.906;8.404;2024-03-08T12:44:23;21.10;39.50
1411;DHT22;700;51.906;8.404;2024-03-08T12:49:23;20.60;41.00
1411;DHT22;700;51.906;8.404;2024-03-08T12:54:27;18.90;42.50
1411;DHT22;700;51.906;8.404;2024-03-08T12:59:31;17.60;44.80
1411;DHT22;700;51.906;8.404;2024-03-08T13:04:32;18.00;45.10
1411;DHT22;700;51.906;8.404;2024-03-08T13:09:32;17.50;45.20
1411;DHT22;700;51.906;8.404;2024-03-08T13:14:40;17.40;44.20
1411;DHT22;700;51.906;8.404;2024-03-08T13:19:41;17.80;44.30
1411;DHT22;700;51.906;8.404;2024-03-08T13:24:44;17.60;45.90
1411;DHT22;700;51.906;8.404;2024-03-08T13:29:51;18.70;45.10
1411;DHT22;700;51.906;8.404;2024-03-08T13:34:54;18.90;43.90
1411;DHT22;700;51.906;8.404;2024-03-08T13:39:58;18.90;44.10
1411;DHT22;700;51.906;8.404;2024-03-08T13:44:59;19.60;44.00
1411;DHT22;700;51.906;8.404;2024-03-08T13:50:02;18.30;44.20
1411;DHT22;700;51.906;8.404;2024-03-08T13:55:05;19.70;45.10
1411;DHT22;700;51.906;8.404;2024-03-08T14:00:06;19.40;43.60
1411;DHT22;700;51.906;8.404;2024-03-08T14:05:07;19.10;44.30
1411;DHT22;700;51.906;8.404;2024-03-08T14:10:09;18.40;45.70
1411;DHT22;700;51.906;8.404;2024-03-08T14:15:10;18.90;46.50
1411;DHT22;700;51.906;8.404;2024-03-08T14:20:11;18.50;46.70
1411;DHT22;700;51.906;8.404;2024-03-08T14:25:15;16.90;48.20
1411;DHT22;700;51.906;8.404;2024-03-08T14:30:19;16.20;49.40
1411;DHT22;700;51.906;8.404;2024-03-08T14:35:36;15.70;50.40
1411;DHT22;700;51.906;8.404;2024-03-08T14:40:39;15.80;51.50
1411;DHT22;700;51.906;8.404;2024-03-08T14:45:40;14.90;52.50
1411;DHT22;700;51.906;8.404;2024-03-08T14:50:41;14.30;52.80
1411;DHT22;700;51.906;8.404;2024-03-08T14:55:44;14.00;54.30
1411;DHT22;700;51.906;8.404;2024-03-08T15:00:47;13.00;55.80
1411;DHT22;700;51.906;8.404;2024-03-08T15:05:50;13.20;55.90
1411;DHT22;700;51.906;8.404;2024-03-08T15:10:51;12.70;57.60
1411;DHT22;700;51.906;8.404;2024-03-08T15:15:54;12.70;59.00
1411;DHT22;700;51.906;8.404;2024-03-08T15:20:55;12.90;59.10
1411;DHT22;700;51.906;8.404;2024-03-08T15:25:59;12.50;59.40
1411;DHT22;700;51.906;8.404;2024-03-08T15:31:00;12.90;59.80
1411;DHT22;700;51.906;8.404;2024-03-08T15:36:05;12.90;59.70
1411;DHT22;700;51.906;8.404;2024-03-08T15:41:12;12.50;62.10
1411;DHT22;700;51.906;8.404;2024-03-08T15:46:18;12.50;61.60
1411;DHT22;700;51.906;8.404;2024-03-08T15:51:25;12.10;62.20
1411;DHT22;700;51.906;8.404;2024-03-08T15:56:31;11.90;63.50
1411;DHT22;700;51.906;8.404;2024-03-08T16:01:35;11.90;64.00
1411;DHT22;700;51.906;8.404;2024-03-08T16:06:37;11.70;65.60
1411;DHT22;700;51.906;8.404;2024-03-08T16:11:40;11.50;66.20
1411;DHT22;700;51.906;8.404;2024-03-08T16:16:41;11.60;66.10
1411;DHT22;700;51.906;8.404;2024-03-08T16:21:44;11.40;68.80
1411;DHT22;700;51.906;8.404;2024-03-08T16:26:47;11.30;70.00
1411;DHT22;700;51.906;8.404;2024-03-08T16:31:48;11.30;70.50
1411;DHT22;700;51.906;8.404;2024-03-08T16:36:49;11.50;71.30
1411;DHT22;700;51.906;8.404;2024-03-08T16:41:49;11.50;71.90
1411;DHT22;700;51.906;8.404;2024-03-08T16:46:50;11.10;74.30
1411;DHT22;700;51.906;8.404;2024-03-08T16:51:51;11.20;75.50
1411;DHT22;700;51.906;8.404;2024-03-08T16:56:51;10.90;76.40
1411;DHT22;700;51.906;8.404;2024-03-08T17:01:52;10.90;79.10
1411;DHT22;700;51.906;8.404;2024-03-08T17:06:52;10.90;81.00
1411;DHT22;700;51.906;8.404;2024-03-08T17:12:00;10.90;82.50
1411;DHT22;700;51.906;8.404;2024-03-08T17:17:01;10.60;85.40
1411;DHT22;700;51.906;8.404;2024-03-08T17:22:05;10.90;88.60
1411;DHT22;700;51.906;8.404;2024-03-08T17:27:07;10.40;90.40
1411;DHT22;700;51.906;8.404;2024-03-08T17:32:07;10.30;92.00
1411;DHT22;700;51.906;8.404;2024-03-08T17:37:11;10.30;93.40
1411;DHT22;700;51.906;8.404;2024-03-08T17:42:15;10.40;95.20
1411;DHT22;700;51.906;8.404;2024-03-08T17:47:21;10.10;96.20
1411;DHT22;700;51.906;8.404;2024-03-08T17:52:22;9.90;98.30
1411;DHT22;700;51.906;8.404;2024-03-08T17:57:23;9.80;99.60
1411;DHT22;700;51.906;8.404;2024-03-08T18:02:25;9.30;99.90
1411;DHT22;700;51.906;8.404;2024-03-08T18:07:26;9.50;99.90
1411;DHT22;700;51.906;8.404;2024-03-08T18:12:26;9.50;99.90
1411;DHT22;700;51.906;8.404;2024-03-08T18:17:33;9.60;99.90
1411;DHT22;700;51.906;8.404;2024-03-08T18:22:36;9.50;99.90
1411;DHT22;700;51.906;8.404;2024-03-08T18:27:37;9.80;99.90
1411;DHT22;700;51.906;8.404;2024-03-08T18:32:47;9.60;99.90
1411;DHT22;700;51.906;8.404;2024-03-08T18:37:48;9.10;99.90
1411;DHT22;700;51.906;8.404;2024-03-08T18:42:53;9.00;99.90
1411;DHT22;700;51.906;8.404;2024-03-08T18:47:55;9.00;99.90
1411;DHT22;700;51.906;8.404;2024-03-08T18:52:58;9.20;99.90
1411;DHT22;700;51.906;8.404;2024-03-08T18:58:00;9.20;99.90
1411;DHT22;700;51.906;8.404;2024-03-08T19:03:07;8.90;99.90
1411;DHT22;700;51.906;8.404;2024-03-08T19:08:10;8.70;99.90
1411;DHT22;700;51.906;8.404;2024-03-08T19:13:13;9.10;99.90
1411;DHT22;700;51.906;8.404;2024-03-08T19:18:14;8.90;99.90
1411;DHT22;700;51.906;8.404;2024-03-08T19:23:14;8.80;99.90
1411;DHT22;700;51.906;8.404;2024-03-08T19:28:15;8.70;99.90
1411;DHT22;700;51.906;8.404;2024-03-08T19:33:21;8.90;99.90
1411;DHT22;700;51.906;8.404;2024-03-08T19:38:22;8.60;99.90
1411;DHT22;700;51.906;8.404;2024-03-08T19:43:23;8.60;99.90
1411;DHT22;700;51.906;8.404;2024-03-08T19:48:27;8.40;99.90
1411;DHT22;700;51.906;8.404;2024-03-08T19:53:28;8.50;99.90
1411;DHT22;700;51.906;8.404;2024-03-08T19:58:28;8.50;99.90
1411;DHT22;700;51.906;8.404;2024-03-08T20:03:29;8.60;99.90
1411;DHT22;700;51.906;8.404;2024-03-08T20:08:31;8.50;99.90
1411;DHT22;700;51.906;8.404;2024-03-08T20:13:32;8.60;99.90
1411;DHT22;700;51.906;8.404;2024-03-08T20:18:34;8.50;99.90
1411;DHT22;700;51.906;8.404;2024-03-08T20:23:37;8.50;99.90
1411;DHT22;700;51.906;8.404;2024-03-08T20:28:44;8.20;99.90
1411;DHT22;700;51.906;8.404;2024-03-08T20:33:44;8.40;99.90
1411;DHT22;700;51.906;8.404;2024-03-08T20:38:49;8.20;99.90
1411;DHT22;700;51.906;8.404;2024-03-08T20:43:50;8.20;99.90
1411;DHT22;700;51.906;8.404;2024-03-08T20:48:51;8.10;99.90
1411;DHT22;700;51.906;8.404;2024-03-08T20:53:51;8.30;99.90
1411;DHT22;700;51.906;8.404;2024-03-08T20:58:54;8.00;99.90
1411;DHT22;700;51.906;8.404;2024-03-08T21:03:55;8.10;99.90
1411;DHT22;700;51.906;8.404;2024-03-08T21:09:00;7.90;99.90
1411;DHT22;700;51.906;8.404;2024-03-08T21:14:03;7.90;99.90
1411;DHT22;700;51.906;8.404;2024-03-08T21:19:03;7.80;99.90
1411;DHT22;700;51.906;8.404;2024-03-08T21:24:06;7.90;99.90
1411;DHT22;700;51.906;8.404;2024-03-08T21:29:09;7.90;99.90
1411;DHT22;700;51.906;8.404;2024-03-08T21:34:10;7.90;99.90
1411;DHT22;700;51.906;8.404;2024-03-08T21:39:13;8.00;99.90
1411;DHT22;700;51.906;8.404;2024-03-08T21:44:13;7.80;99.90
1411;DHT22;700;51.906;8.404;2024-03-08T21:49:15;8.10;99.90
1411;DHT22;700;51.906;8.404;2024-03-08T21:54:16;8.00;99.90
1411;DHT22;700;51.906;8.404;2024-03-08T21:59:20;8.10;99.90
1411;DHT22;700;51.906;8.404;2024-03-08T22:04:20;8.20;99.90
1411;DHT22;700;51.906;8.404;2024-03-08T22:09:23;7.80;99.90
1411;DHT22;700;51.906;8.404;2024-03-08T22:14:24;7.90;99.90
1411;DHT22;700;51.906;8.404;2024-03-08T22:19:27;7.90;99.90
1411;DHT22;700;51.906;8.404;2024-03-08T22:24:28;7.80;99.90
1411;DHT22;700;51.906;8.404;2024-03-08T22:29:28;7.70;99.90
1411;DHT22;700;51.906;8.404;2024-03-08T22:34:29;7.60;99.90
1411;DHT22;700;51.906;8.404;2024-03-08T22:39:35;7.60;99.90
1411;DHT22;700;51.906;8.404;2024-03-08T22:44:35;7.90;99.90
1411;DHT22;700;51.906;8.404;2024-03-08T22:49:36;7.90;99.90
1411;DHT22;700;51.906;8.404;2024-03-08T22:54:36;7.90;99.90
1411;DHT22;700;51.906;8.404;2024-03-08T22:59:37;7.80;99.90
1411;DHT22;700;51.906;8.404;2024-03-08T23:04:37;7.70;99.90
1411;DHT22;700;51.906;8.404;2024-03-08T23:09:39;7.60;99.90
1411;DHT22;700;51.906;8.404;2024-03-08T23:14:45;7.60;99.90
1411;DHT22;700;51.906;8.404;2024-03-08T23:19:46;7.50;99.90
1411;DHT22;700;51.906;8.404;2024-03-08T23:24:47;7.50;99.90
1411;DHT22;700;51.906;8.404;2024-03-08T23:29:47;7.60;99.90
1411;DHT22;700;51.906;8.404;2024-03-08T23:34:48;7.90;99.90
1411;DHT22;700;51.906;8.404;2024-03-08T23:39:48;7.90;99.90
1411;DHT22;700;51.906;8.404;2024-03-08T23:44:49;7.60;99.90
1411;DHT22;700;51.906;8.404;2024-03-08T23:49:50;7.60;99.90
1411;DHT22;700;51.906;8.404;2024-03-08T23:54:53;7.60;99.90
1411;DHT22;700;51.906;8.404;2024-03-08T23:59:53;7.50;99.90
